Time,TemperatureF,DewpointF,PressureIn,WindDirection,WindDirectionDegrees,WindSpeedMPH,WindSpeedGustMPH,Humidity,HourlyPrecipIn,Conditions,Clouds,dailyrainin,SoftwareType,DateUTC
2013-04-27 00:00:00,54.4,50.9,30.19,NE,51,11.4,13.2,88,0.00,,---,0.08,VWS V14.00,2013-04-27 04:00:00,
2013-04-27 00:01:00,54.4,50.9,30.19,ENE,64,5.8,12.3,88,0.00,,---,0.08,VWS V14.00,2013-04-27 04:01:00,
2013-04-27 00:02:00,54.4,50.9,30.19,NNE,27,12.3,12.3,88,0.00,,---,0.08,VWS V14.00,2013-04-27 04:02:00,
2013-04-27 00:03:00,54.4,50.6,30.19,NE,56,13.2,13.2,87,0.00,,---,0.08,VWS V14.00,2013-04-27 04:03:00,
2013-04-27 00:08:00,54.6,51.1,30.19,East,81,8.3,13.2,88,0.00,,---,0.08,VWS V14.00,2013-04-27 04:08:00,
2013-04-27 00:13:00,54.6,50.8,30.22,NE,47,8.1,14.1,87,0.00,,---,0.08,VWS V14.00,2013-04-27 04:13:00,
2013-04-27 00:18:00,54.8,51.0,30.22,ENE,62,8.1,14.1,87,0.00,,---,0.08,VWS V14.00,2013-04-27 04:18:00,
2013-04-27 00:23:00,54.9,50.8,30.22,NNE,31,5.8,10.5,86,0.00,,---,0.08,VWS V14.00,2013-04-27 04:23:00,
2013-04-27 00:28:00,54.9,50.8,30.22,NE,46,5.4,11.0,86,0.00,,---,0.08,VWS V14.00,2013-04-27 04:28:00,
2013-04-27 00:33:00,54.9,51.2,30.22,East,86,4.0,8.1,87,0.00,,---,0.08,VWS V14.00,2013-04-27 04:33:00,
2013-04-27 00:38:00,54.8,51.3,30.22,NE,50,5.8,8.3,88,0.00,,---,0.08,VWS V14.00,2013-04-27 04:38:00,
2013-04-27 00:44:00,54.8,51.3,30.22,NE,39,8.1,10.1,88,0.00,,---,0.08,VWS V14.00,2013-04-27 04:44:00,
2013-04-27 00:49:00,54.8,51.6,30.22,NE,48,12.8,13.2,89,0.00,,---,0.08,VWS V14.00,2013-04-27 04:49:00,
2013-04-27 00:54:00,54.9,51.5,30.22,NE,38,7.6,12.3,88,0.00,,---,0.08,VWS V14.00,2013-04-27 04:54:00,
2013-04-27 00:59:00,54.8,51.6,30.22,NE,44,8.7,12.3,89,0.00,,---,0.08,VWS V14.00,2013-04-27 04:59:00,
2013-04-27 01:04:00,54.6,51.7,30.22,ENE,64,7.6,10.1,90,0.00,,---,0.00,VWS V14.00,2013-04-27 05:04:00,
2013-04-27 01:09:00,54.6,51.7,30.22,NE,35,8.3,10.5,90,0.00,,---,0.00,VWS V14.00,2013-04-27 05:09:00,
2013-04-27 01:14:00,54.6,51.7,30.19,NE,36,7.6,10.1,90,0.00,,---,0.00,VWS V14.00,2013-04-27 05:14:00,
2013-04-27 01:19:00,54.6,51.7,30.19,NE,46,8.1,10.5,90,0.00,,---,0.00,VWS V14.00,2013-04-27 05:19:00,
2013-04-27 01:24:00,54.6,51.7,30.19,NNE,33,4.9,12.3,90,0.00,,---,0.00,VWS V14.00,2013-04-27 05:24:00,
2013-04-27 01:29:00,54.4,51.5,30.22,ENE,70,4.9,12.3,90,0.00,,---,0.00,VWS V14.00,2013-04-27 05:29:00,
2013-04-27 01:34:00,53.3,52.8,30.22,ESE,108,5.4,10.5,98,0.00,,---,0.04,VWS V14.00,2013-04-27 05:34:00,
2013-04-27 01:39:00,52.6,52.6,30.22,NE,46,3.1,10.5,100,0.00,,---,0.04,VWS V14.00,2013-04-27 05:39:00,
2013-04-27 01:44:00,52.4,52.4,30.22,NE,37,10.1,10.1,100,0.00,,---,0.04,VWS V14.00,2013-04-27 05:44:00,
2013-04-27 01:49:00,52.1,52.1,30.22,NE,54,4.9,11.0,100,0.00,,---,0.04,VWS V14.00,2013-04-27 05:49:00,
2013-04-27 01:54:00,52.1,52.1,30.22,NE,52,4.9,7.6,100,0.00,,---,0.04,VWS V14.00,2013-04-27 05:54:00,
2013-04-27 02:00:00,52.1,52.1,30.22,NE,41,6.7,8.7,100,0.00,,---,0.04,VWS V14.00,2013-04-27 06:00:00,
2013-04-27 02:05:00,52.1,52.1,30.22,North,357,6.3,6.7,100,0.00,,---,0.04,VWS V14.00,2013-04-27 06:05:00,
2013-04-27 02:10:00,51.9,51.9,30.22,NE,36,6.7,6.7,100,0.00,,---,0.04,VWS V14.00,2013-04-27 06:10:00,
2013-04-27 02:15:00,51.9,51.9,30.22,NE,41,4.9,11.0,100,0.00,,---,0.04,VWS V14.00,2013-04-27 06:15:00,
2013-04-27 02:20:00,51.7,51.7,30.22,NNE,27,3.1,3.6,100,0.04,,---,0.08,VWS V14.00,2013-04-27 06:20:00,
2013-04-27 02:25:00,51.7,51.7,30.22,NNE,31,5.4,7.6,100,0.04,,---,0.08,VWS V14.00,2013-04-27 06:25:00,
2013-04-27 02:30:00,51.7,51.7,30.22,NE,50,8.1,8.1,100,0.08,,---,0.12,VWS V14.00,2013-04-27 06:30:00,
2013-04-27 02:35:00,51.5,51.5,30.22,NE,51,5.8,8.1,100,0.08,,---,0.12,VWS V14.00,2013-04-27 06:35:00,
2013-04-27 02:40:00,51.5,51.5,30.19,NNE,25,5.4,5.4,100,0.08,,---,0.12,VWS V14.00,2013-04-27 06:40:00,
2013-04-27 02:45:00,51.5,51.5,30.19,NE,51,5.8,6.3,100,0.08,,---,0.12,VWS V14.00,2013-04-27 06:45:00,
2013-04-27 02:50:00,51.5,51.5,30.19,NE,34,5.8,6.7,100,0.08,,---,0.12,VWS V14.00,2013-04-27 06:50:00,
2013-04-27 02:55:00,51.5,51.5,30.19,ENE,69,5.8,11.0,100,0.08,,---,0.12,VWS V14.00,2013-04-27 06:55:00,
2013-04-27 03:00:00,51.3,51.3,30.19,North,6,2.7,2.7,100,0.08,,---,0.12,VWS V14.00,2013-04-27 07:00:00,
2013-04-27 03:05:00,51.5,51.5,30.19,NE,43,5.4,6.3,100,0.08,,---,0.12,VWS V14.00,2013-04-27 07:05:00,
2013-04-27 03:11:00,51.5,51.5,30.16,NE,56,3.6,5.8,100,0.08,,---,0.12,VWS V14.00,2013-04-27 07:11:00,
2013-04-27 03:16:00,51.5,51.5,30.16,ENE,60,5.8,5.8,100,0.08,,---,0.12,VWS V14.00,2013-04-27 07:16:00,
2013-04-27 03:21:00,51.5,51.5,30.16,East,88,3.1,5.4,100,0.08,,---,0.12,VWS V14.00,2013-04-27 07:21:00,
2013-04-27 03:26:00,51.5,51.5,30.16,ENE,62,5.4,8.1,100,0.08,,---,0.12,VWS V14.00,2013-04-27 07:26:00,
2013-04-27 03:31:00,51.5,51.5,30.16,NE,55,3.1,6.3,100,0.08,,---,0.12,VWS V14.00,2013-04-27 07:31:00,
2013-04-27 03:36:00,51.3,51.3,30.16,NE,55,3.1,7.6,100,0.08,,---,0.12,VWS V14.00,2013-04-27 07:36:00,
2013-04-27 03:41:00,51.3,51.3,30.16,NNE,22,0.0,6.3,100,0.08,,---,0.12,VWS V14.00,2013-04-27 07:41:00,
2013-04-27 03:46:00,51.5,51.5,30.16,NE,49,4.0,8.7,100,0.08,,---,0.12,VWS V14.00,2013-04-27 07:46:00,
2013-04-27 03:51:00,51.5,51.5,30.16,NE,45,6.7,6.7,100,0.08,,---,0.12,VWS V14.00,2013-04-27 07:51:00,
2013-04-27 03:56:00,51.5,51.5,30.16,NE,42,5.8,11.0,100,0.08,,---,0.12,VWS V14.00,2013-04-27 07:56:00,
2013-04-27 04:01:00,51.5,51.5,30.16,ENE,57,5.4,5.8,100,0.08,,---,0.12,VWS V14.00,2013-04-27 08:01:00,
2013-04-27 04:06:00,51.5,51.5,30.16,ENE,67,5.8,8.3,100,0.08,,---,0.12,VWS V14.00,2013-04-27 08:06:00,
2013-04-27 04:11:00,51.5,51.5,30.16,ENE,59,4.0,4.9,100,0.08,,---,0.12,VWS V14.00,2013-04-27 08:11:00,
2013-04-27 04:16:00,51.5,51.5,30.16,NNE,33,3.6,6.3,100,0.08,,---,0.12,VWS V14.00,2013-04-27 08:16:00,
2013-04-27 04:22:00,51.5,51.5,30.16,North,357,0.0,4.0,100,0.08,,---,0.12,VWS V14.00,2013-04-27 08:22:00,
2013-04-27 04:27:00,51.5,51.5,30.16,NNE,18,0.0,4.0,100,0.04,,---,0.16,VWS V14.00,2013-04-27 08:27:00,
2013-04-27 04:32:00,51.5,51.5,30.16,East,101,0.0,0.0,100,0.04,,---,0.16,VWS V14.00,2013-04-27 08:32:00,
2013-04-27 04:37:00,51.7,51.7,30.16,NE,51,4.0,4.0,100,0.04,,---,0.16,VWS V14.00,2013-04-27 08:37:00,
2013-04-27 04:42:00,51.5,51.5,30.13,East,95,3.6,3.6,100,0.04,,---,0.16,VWS V14.00,2013-04-27 08:42:00,
2013-04-27 04:47:00,51.5,51.5,30.13,NE,39,4.5,6.3,100,0.04,,---,0.16,VWS V14.00,2013-04-27 08:47:00,
2013-04-27 04:52:00,51.5,51.5,30.13,North,7,5.8,6.7,100,0.04,,---,0.16,VWS V14.00,2013-04-27 08:52:00,
2013-04-27 04:57:00,51.5,51.5,30.13,NE,55,2.7,6.7,100,0.04,,---,0.16,VWS V14.00,2013-04-27 08:57:00,
2013-04-27 05:02:00,51.5,51.5,30.13,ENE,61,4.0,6.3,100,0.04,,---,0.16,VWS V14.00,2013-04-27 09:02:00,
2013-04-27 05:07:00,51.5,51.5,30.13,NNE,29,4.0,7.6,100,0.04,,---,0.16,VWS V14.00,2013-04-27 09:07:00,
2013-04-27 05:12:00,51.5,51.5,30.13,ENE,64,2.7,8.1,100,0.04,,---,0.16,VWS V14.00,2013-04-27 09:12:00,
2013-04-27 05:17:00,51.5,51.5,30.13,ENE,68,3.1,8.1,100,0.04,,---,0.16,VWS V14.00,2013-04-27 09:17:00,
2013-04-27 05:22:00,51.5,51.5,30.13,NE,47,6.3,6.3,100,0.04,,---,0.16,VWS V14.00,2013-04-27 09:22:00,
2013-04-27 05:27:00,51.5,51.5,30.13,ENE,57,6.3,8.7,100,0.04,,---,0.16,VWS V14.00,2013-04-27 09:27:00,
2013-04-27 05:33:00,51.7,51.7,30.13,North,10,3.1,8.7,100,0.04,,---,0.16,VWS V14.00,2013-04-27 09:33:00,
2013-04-27 05:38:00,51.7,51.7,30.13,NNE,28,6.3,8.7,100,0.04,,---,0.16,VWS V14.00,2013-04-27 09:38:00,
2013-04-27 05:43:00,51.7,51.7,30.10,NE,54,5.8,9.6,100,0.04,,---,0.16,VWS V14.00,2013-04-27 09:43:00,
2013-04-27 05:48:00,51.7,51.7,30.10,NE,51,4.0,9.6,100,0.04,,---,0.16,VWS V14.00,2013-04-27 09:48:00,
2013-04-27 05:53:00,51.7,51.7,30.10,NNE,27,4.0,7.2,100,0.04,,---,0.20,VWS V14.00,2013-04-27 09:53:00,
2013-04-27 05:58:00,51.9,51.9,30.10,ENE,64,4.0,8.1,100,0.04,,---,0.20,VWS V14.00,2013-04-27 09:58:00,
2013-04-27 06:03:00,51.9,51.9,30.10,NE,54,8.7,8.7,100,0.04,,---,0.20,VWS V14.00,2013-04-27 10:03:00,
2013-04-27 06:08:00,51.7,51.7,30.10,NNE,27,4.0,9.6,100,0.04,,---,0.20,VWS V14.00,2013-04-27 10:08:00,
2013-04-27 06:13:00,51.9,51.9,30.10,NE,35,3.1,6.7,100,0.04,,---,0.20,VWS V14.00,2013-04-27 10:13:00,
2013-04-27 06:18:00,51.9,51.9,30.10,ENE,74,3.6,6.7,100,0.04,,---,0.20,VWS V14.00,2013-04-27 10:18:00,
2013-04-27 06:23:00,51.9,51.9,30.10,ENE,71,3.6,7.2,100,0.04,,---,0.20,VWS V14.00,2013-04-27 10:23:00,
2013-04-27 06:28:00,51.9,51.9,30.10,NNE,17,8.3,8.3,100,0.04,,---,0.20,VWS V14.00,2013-04-27 10:28:00,
2013-04-27 06:34:00,51.9,51.9,30.10,NNE,24,0.0,11.0,100,0.04,,---,0.20,VWS V14.00,2013-04-27 10:34:00,
2013-04-27 06:39:00,51.9,51.9,30.10,ENE,65,3.1,11.0,100,0.04,,---,0.20,VWS V14.00,2013-04-27 10:39:00,
2013-04-27 06:44:00,51.9,51.9,30.10,ENE,57,2.7,8.1,100,0.04,,---,0.20,VWS V14.00,2013-04-27 10:44:00,
2013-04-27 06:49:00,51.9,51.9,30.10,NE,40,2.7,8.1,100,0.04,,---,0.20,VWS V14.00,2013-04-27 10:49:00,
2013-04-27 06:54:00,51.9,51.9,30.10,NE,39,6.7,8.3,100,0.04,,---,0.20,VWS V14.00,2013-04-27 10:54:00,
2013-04-27 06:59:00,51.9,51.9,30.10,North,357,2.2,8.7,100,0.04,,---,0.20,VWS V14.00,2013-04-27 10:59:00,
2013-04-27 07:04:00,52.1,52.1,30.10,NNE,15,6.3,10.5,100,0.04,,---,0.20,VWS V14.00,2013-04-27 11:04:00,
2013-04-27 07:09:00,52.1,52.1,30.10,WNW,303,3.1,10.5,100,0.04,,---,0.20,VWS V14.00,2013-04-27 11:09:00,
2013-04-27 07:14:00,52.1,52.1,30.16,NNW,332,0.0,6.3,100,0.04,,---,0.24,VWS V14.00,2013-04-27 11:14:00,
2013-04-27 07:19:00,51.9,51.9,30.16,NNE,32,3.1,8.3,100,0.04,,---,0.24,VWS V14.00,2013-04-27 11:19:00,
2013-04-27 07:24:00,51.9,51.9,30.16,NE,45,0.0,6.3,100,0.04,,---,0.24,VWS V14.00,2013-04-27 11:24:00,
2013-04-27 07:29:00,51.9,51.9,30.13,NE,36,0.0,6.3,100,0.04,,---,0.30,VWS V14.00,2013-04-27 11:29:00,
2013-04-27 07:34:00,51.7,51.7,30.13,NNE,33,0.0,4.0,100,0.04,,---,0.30,VWS V14.00,2013-04-27 11:34:00,
2013-04-27 07:39:00,51.9,51.9,30.13,NE,46,3.6,4.0,100,0.04,,---,0.30,VWS V14.00,2013-04-27 11:39:00,
2013-04-27 07:45:00,51.9,51.9,30.10,ENE,62,0.0,5.8,100,0.04,,---,0.30,VWS V14.00,2013-04-27 11:45:00,
2013-04-27 07:50:00,51.9,51.9,30.10,East,89,0.0,5.8,100,0.04,,---,0.30,VWS V14.00,2013-04-27 11:50:00,
2013-04-27 07:55:00,51.9,51.9,30.10,ESE,103,2.7,3.1,100,0.04,,---,0.30,VWS V14.00,2013-04-27 11:55:00,
2013-04-27 08:00:00,51.9,51.9,30.10,East,97,0.0,0.0,100,0.04,,---,0.30,VWS V14.00,2013-04-27 12:00:00,
2013-04-27 08:05:00,51.9,51.9,30.10,NE,56,0.0,4.0,100,0.04,,---,0.30,VWS V14.00,2013-04-27 12:05:00,
2013-04-27 08:10:00,51.9,51.9,30.07,SE,133,0.0,0.0,100,0.04,,---,0.30,VWS V14.00,2013-04-27 12:10:00,
2013-04-27 08:15:00,52.1,52.1,30.07,ENE,61,4.0,4.5,100,0.04,,---,0.30,VWS V14.00,2013-04-27 12:15:00,
2013-04-27 08:20:00,52.2,52.2,30.07,East,97,0.0,0.0,100,0.04,,---,0.30,VWS V14.00,2013-04-27 12:20:00,
2013-04-27 08:25:00,52.2,52.2,30.07,SE,126,4.0,4.0,100,0.04,,---,0.30,VWS V14.00,2013-04-27 12:25:00,
2013-04-27 08:30:00,52.4,52.4,30.07,SE,136,0.0,3.1,100,0.04,,---,0.30,VWS V14.00,2013-04-27 12:30:00,
2013-04-27 08:36:00,52.4,52.4,30.07,East,99,0.0,4.0,100,0.04,,---,0.30,VWS V14.00,2013-04-27 12:36:00,
2013-04-27 08:41:00,52.6,52.6,30.07,East,91,2.7,2.7,100,0.04,,---,0.30,VWS V14.00,2013-04-27 12:41:00,
2013-04-27 08:46:00,52.6,52.6,30.07,NE,53,3.1,6.3,100,0.04,,---,0.30,VWS V14.00,2013-04-27 12:46:00,
2013-04-27 08:51:00,52.8,52.8,30.07,ENE,77,0.0,2.7,100,0.04,,---,0.30,VWS V14.00,2013-04-27 12:51:00,
2013-04-27 08:56:00,52.8,52.8,30.10,NNE,33,2.2,5.4,100,0.04,,---,0.30,VWS V14.00,2013-04-27 12:56:00,
2013-04-27 09:01:00,53.0,53.0,30.10,NNE,23,3.6,4.0,100,0.04,,---,0.30,VWS V14.00,2013-04-27 13:01:00,
2013-04-27 09:06:00,53.1,53.1,30.10,NNE,15,3.1,5.4,100,0.04,,---,0.30,VWS V14.00,2013-04-27 13:06:00,
2013-04-27 09:11:00,53.1,53.1,30.10,NE,55,3.1,5.4,100,0.04,,---,0.30,VWS V14.00,2013-04-27 13:11:00,
2013-04-27 09:16:00,53.5,53.5,30.10,North,7,0.0,5.4,100,0.04,,---,0.30,VWS V14.00,2013-04-27 13:16:00,
2013-04-27 09:21:00,53.7,53.7,30.10,ENE,58,0.0,0.0,100,0.00,,---,0.30,VWS V14.00,2013-04-27 13:21:00,
2013-04-27 09:26:00,53.7,53.7,30.10,NNW,341,2.2,4.0,100,0.00,,---,0.30,VWS V14.00,2013-04-27 13:26:00,
2013-04-27 09:31:00,53.5,53.5,30.10,North,353,0.0,3.6,100,0.00,,---,0.30,VWS V14.00,2013-04-27 13:31:00,
2013-04-27 09:36:00,53.7,53.7,30.10,NNE,12,2.2,3.6,100,0.00,,---,0.30,VWS V14.00,2013-04-27 13:36:00,
2013-04-27 09:42:00,53.7,53.7,30.10,NNE,23,3.6,3.6,100,0.00,,---,0.30,VWS V14.00,2013-04-27 13:42:00,
2013-04-27 09:48:00,53.7,53.7,30.10,NNE,28,3.6,4.0,100,0.00,,---,0.30,VWS V14.00,2013-04-27 13:48:00,
2013-04-27 09:53:00,53.9,53.9,30.10,NE,47,0.0,3.6,100,0.00,,---,0.30,VWS V14.00,2013-04-27 13:53:00,
2013-04-27 09:58:00,54.2,54.2,30.10,North,357,0.0,4.0,100,0.00,,---,0.30,VWS V14.00,2013-04-27 13:58:00,
2013-04-27 10:03:00,54.9,54.9,30.10,East,81,0.0,0.0,100,0.00,,---,0.30,VWS V14.00,2013-04-27 14:03:00,
2013-04-27 10:08:00,55.3,55.3,30.10,NNE,27,0.0,0.0,100,0.00,,---,0.30,VWS V14.00,2013-04-27 14:08:00,
2013-04-27 10:14:00,55.7,55.7,30.10,North,8,0.0,3.1,100,0.00,,---,0.30,VWS V14.00,2013-04-27 14:14:00,
2013-04-27 10:19:00,55.8,55.8,30.10,NNE,20,0.0,3.1,100,0.00,,---,0.30,VWS V14.00,2013-04-27 14:19:00,
2013-04-27 10:24:00,55.8,55.8,30.10,East,83,3.1,3.6,100,0.00,,---,0.30,VWS V14.00,2013-04-27 14:24:00,
2013-04-27 10:29:00,55.8,55.8,30.10,NNE,22,4.0,4.9,100,0.00,,---,0.30,VWS V14.00,2013-04-27 14:29:00,
2013-04-27 10:34:00,56.2,55.7,30.10,NE,42,4.0,5.8,98,0.00,,---,0.30,VWS V14.00,2013-04-27 14:34:00,
2013-04-27 10:39:00,56.7,55.9,30.10,North,11,3.1,5.8,97,0.00,,---,0.30,VWS V14.00,2013-04-27 14:39:00,
2013-04-27 10:44:00,56.9,55.2,30.10,NE,54,4.0,6.3,94,0.00,,---,0.30,VWS V14.00,2013-04-27 14:44:00,
2013-04-27 10:49:00,56.7,55.0,30.10,NE,44,3.1,6.3,94,0.00,,---,0.30,VWS V14.00,2013-04-27 14:49:00,
2013-04-27 10:54:00,57.1,56.5,30.10,ENE,72,3.1,4.0,98,0.00,,---,0.30,VWS V14.00,2013-04-27 14:54:00,
2013-04-27 10:59:00,57.8,55.5,30.07,East,99,0.0,6.3,92,0.00,,---,0.30,VWS V14.00,2013-04-27 14:59:00,
2013-04-27 11:04:00,57.8,55.2,30.07,NE,43,5.8,5.8,91,0.00,,---,0.30,VWS V14.00,2013-04-27 15:04:00,
2013-04-27 11:09:00,57.8,55.5,30.07,NE,40,0.0,5.8,92,0.00,,---,0.30,VWS V14.00,2013-04-27 15:09:00,
2013-04-27 11:15:00,57.8,55.5,30.07,NE,42,4.9,4.9,92,0.00,,---,0.30,VWS V14.00,2013-04-27 15:15:00,
2013-04-27 11:20:00,57.6,55.6,30.07,NE,54,0.0,4.9,93,0.00,,---,0.30,VWS V14.00,2013-04-27 15:20:00,
2013-04-27 11:25:00,57.3,55.9,30.07,North,6,2.2,5.8,95,0.00,,---,0.30,VWS V14.00,2013-04-27 15:25:00,
2013-04-27 11:30:00,57.1,56.3,30.10,NNE,21,3.1,3.1,97,0.00,,---,0.30,VWS V14.00,2013-04-27 15:30:00,
2013-04-27 11:35:00,57.1,56.5,30.10,NE,46,0.0,3.6,98,0.00,,---,0.30,VWS V14.00,2013-04-27 15:35:00,
2013-04-27 11:40:00,57.3,57.0,30.10,East,79,0.0,0.0,99,0.00,,---,0.30,VWS V14.00,2013-04-27 15:40:00,
2013-04-27 11:45:00,57.5,57.2,30.10,NNE,16,3.6,5.4,99,0.00,,---,0.30,VWS V14.00,2013-04-27 15:45:00,
2013-04-27 11:50:00,57.5,57.2,30.10,NNE,16,0.0,0.0,99,0.00,,---,0.30,VWS V14.00,2013-04-27 15:50:00,
2013-04-27 11:55:00,57.5,56.3,30.10,ENE,62,3.1,5.8,96,0.00,,---,0.30,VWS V14.00,2013-04-27 15:55:00,
2013-04-27 12:00:00,57.5,56.9,30.10,East,82,0.0,0.0,98,0.00,,---,0.30,VWS V14.00,2013-04-27 16:00:00,
2013-04-27 12:05:00,57.8,57.0,30.10,ENE,65,4.0,5.8,97,0.00,,---,0.30,VWS V14.00,2013-04-27 16:05:00,
2013-04-27 12:10:00,57.8,57.0,30.10,NE,37,4.0,5.4,97,0.00,,---,0.30,VWS V14.00,2013-04-27 16:10:00,
2013-04-27 12:16:00,57.8,57.3,30.10,ENE,57,3.1,5.4,98,0.00,,---,0.30,VWS V14.00,2013-04-27 16:16:00,
2013-04-27 12:21:00,57.8,57.5,30.10,NNE,20,4.0,4.9,99,0.00,,---,0.30,VWS V14.00,2013-04-27 16:21:00,
2013-04-27 12:26:00,57.6,57.4,30.10,NE,50,3.1,7.6,99,0.00,,---,0.30,VWS V14.00,2013-04-27 16:26:00,
2013-04-27 12:31:00,57.3,57.3,30.10,NE,41,6.3,6.3,100,0.00,,---,0.30,VWS V14.00,2013-04-27 16:31:00,
2013-04-27 12:36:00,57.1,57.1,30.10,NNE,32,4.0,6.3,100,0.00,,---,0.30,VWS V14.00,2013-04-27 16:36:00,
2013-04-27 12:41:00,57.5,57.5,30.07,ENE,59,3.1,3.1,100,0.00,,---,0.30,VWS V14.00,2013-04-27 16:41:00,
2013-04-27 12:46:00,57.8,57.8,30.07,ESE,105,0.0,4.9,100,0.00,,---,0.30,VWS V14.00,2013-04-27 16:46:00,
2013-04-27 12:51:00,57.8,57.8,30.07,NE,48,5.4,5.8,100,0.00,,---,0.30,VWS V14.00,2013-04-27 16:51:00,
2013-04-27 12:56:00,57.5,57.5,30.07,NE,42,3.6,6.3,100,0.00,,---,0.30,VWS V14.00,2013-04-27 16:56:00,
2013-04-27 13:01:00,57.1,57.1,30.07,East,93,0.0,4.0,100,0.00,,---,0.30,VWS V14.00,2013-04-27 17:01:00,
2013-04-27 13:06:00,57.1,57.1,30.07,ENE,77,3.1,5.8,100,0.00,,---,0.30,VWS V14.00,2013-04-27 17:06:00,
2013-04-27 13:12:00,57.5,57.5,30.07,NE,43,8.1,8.1,100,0.00,,---,0.30,VWS V14.00,2013-04-27 17:12:00,
2013-04-27 13:17:00,57.5,57.5,30.07,East,89,3.6,8.3,100,0.00,,---,0.30,VWS V14.00,2013-04-27 17:17:00,
2013-04-27 13:22:00,57.5,57.5,30.07,NNE,32,5.4,5.8,100,0.00,,---,0.30,VWS V14.00,2013-04-27 17:22:00,
2013-04-27 13:27:00,57.3,57.3,30.07,ENE,59,3.6,6.3,100,0.00,,---,0.30,VWS V14.00,2013-04-27 17:27:00,
2013-04-27 13:32:00,57.5,57.5,30.07,ENE,67,0.0,3.6,100,0.00,,---,0.30,VWS V14.00,2013-04-27 17:32:00,
2013-04-27 13:37:00,57.5,57.5,30.07,NE,50,4.0,6.3,100,0.00,,---,0.30,VWS V14.00,2013-04-27 17:37:00,
2013-04-27 13:42:00,57.5,57.5,30.07,NE,51,2.7,4.0,100,0.00,,---,0.30,VWS V14.00,2013-04-27 17:42:00,
2013-04-27 13:47:00,57.3,57.3,30.07,East,89,4.0,5.8,100,0.00,,---,0.30,VWS V14.00,2013-04-27 17:47:00,
2013-04-27 13:53:00,57.3,57.3,30.07,ENE,76,2.7,4.9,100,0.00,,---,0.30,VWS V14.00,2013-04-27 17:53:00,
2013-04-27 13:58:00,57.3,57.3,30.07,ESE,104,5.4,6.3,100,0.00,,---,0.30,VWS V14.00,2013-04-27 17:58:00,
2013-04-27 14:03:00,57.3,57.3,30.07,NNE,24,2.2,5.4,100,0.00,,---,0.30,VWS V14.00,2013-04-27 18:03:00,
2013-04-27 14:08:00,57.5,57.5,30.07,NE,49,0.0,5.4,100,0.00,,---,0.30,VWS V14.00,2013-04-27 18:08:00,
2013-04-27 14:13:00,57.3,57.3,30.07,NE,42,3.1,3.6,100,0.00,,---,0.30,VWS V14.00,2013-04-27 18:13:00,
2013-04-27 14:18:00,57.5,57.5,30.07,ENE,63,0.0,4.0,100,0.00,,---,0.30,VWS V14.00,2013-04-27 18:18:00,
2013-04-27 14:23:00,57.5,57.5,30.07,East,90,3.1,4.0,100,0.00,,---,0.30,VWS V14.00,2013-04-27 18:23:00,
2013-04-27 14:28:00,57.5,57.5,30.04,ENE,68,2.2,4.0,100,0.00,,---,0.30,VWS V14.00,2013-04-27 18:28:00,
2013-04-27 14:33:00,57.5,57.5,30.04,ENE,70,0.0,3.1,100,0.00,,---,0.30,VWS V14.00,2013-04-27 18:33:00,
2013-04-27 14:38:00,57.3,57.3,30.04,NE,47,0.0,3.6,100,0.00,,---,0.30,VWS V14.00,2013-04-27 18:38:00,
2013-04-27 14:43:00,57.3,57.3,30.04,NE,42,4.9,5.4,100,0.00,,---,0.30,VWS V14.00,2013-04-27 18:43:00,
2013-04-27 14:48:00,57.1,57.1,30.04,NNE,31,3.6,5.4,100,0.00,,---,0.30,VWS V14.00,2013-04-27 18:48:00,
2013-04-27 14:53:00,57.1,57.1,30.04,ENE,62,3.6,5.4,100,0.00,,---,0.30,VWS V14.00,2013-04-27 18:53:00,
2013-04-27 14:59:00,57.1,57.1,30.04,NE,42,3.1,5.8,100,0.00,,---,0.30,VWS V14.00,2013-04-27 18:59:00,
2013-04-27 15:04:00,57.3,57.3,30.04,NE,35,0.0,4.9,100,0.00,,---,0.30,VWS V14.00,2013-04-27 19:04:00,
2013-04-27 15:09:00,57.5,57.5,30.04,ENE,70,0.0,4.9,100,0.00,,---,0.30,VWS V14.00,2013-04-27 19:09:00,
2013-04-27 15:14:00,57.5,57.5,30.04,East,86,0.0,3.1,100,0.00,,---,0.30,VWS V14.00,2013-04-27 19:14:00,
2013-04-27 15:19:00,57.8,57.8,30.04,ENE,59,0.0,3.1,100,0.00,,---,0.30,VWS V14.00,2013-04-27 19:19:00,
2013-04-27 15:24:00,58.2,58.2,30.04,East,93,0.0,2.7,100,0.00,,---,0.30,VWS V14.00,2013-04-27 19:24:00,
2013-04-27 15:29:00,58.2,58.2,30.04,ENE,75,0.0,4.0,100,0.00,,---,0.30,VWS V14.00,2013-04-27 19:29:00,
2013-04-27 15:34:00,58.4,58.4,30.04,East,82,0.0,0.0,100,0.00,,---,0.30,VWS V14.00,2013-04-27 19:34:00,
2013-04-27 15:39:00,58.5,58.5,30.04,East,82,0.0,0.0,100,0.00,,---,0.30,VWS V14.00,2013-04-27 19:39:00,
2013-04-27 15:44:00,58.7,58.7,30.04,ENE,65,3.1,3.1,100,0.00,,---,0.30,VWS V14.00,2013-04-27 19:44:00,
2013-04-27 15:50:00,58.7,58.7,30.04,ENE,71,2.7,4.0,100,0.00,,---,0.30,VWS V14.00,2013-04-27 19:50:00,
2013-04-27 15:55:00,58.5,58.5,30.04,NE,37,2.7,4.9,100,0.00,,---,0.30,VWS V14.00,2013-04-27 19:55:00,
2013-04-27 16:00:00,58.7,58.7,30.01,East,99,0.0,0.0,100,0.00,,---,0.30,VWS V14.00,2013-04-27 20:00:00,
2013-04-27 16:05:00,59.4,59.4,30.01,East,98,0.0,0.0,100,0.00,,---,0.30,VWS V14.00,2013-04-27 20:05:00,
2013-04-27 16:10:00,59.8,59.8,30.01,NE,47,4.0,4.9,100,0.00,,---,0.30,VWS V14.00,2013-04-27 20:10:00,
2013-04-27 16:15:00,60.2,60.2,30.01,ENE,64,2.2,4.9,100,0.00,,---,0.30,VWS V14.00,2013-04-27 20:15:00,
2013-04-27 16:20:00,60.5,60.5,30.01,NE,43,2.7,3.1,100,0.00,,---,0.30,VWS V14.00,2013-04-27 20:20:00,
2013-04-27 16:25:00,60.2,60.2,30.01,ENE,64,0.0,3.1,100,0.00,,---,0.30,VWS V14.00,2013-04-27 20:25:00,
2013-04-27 16:30:00,60.5,60.5,29.98,ENE,70,0.0,0.0,100,0.00,,---,0.30,VWS V14.00,2013-04-27 20:30:00,
2013-04-27 16:35:00,61.6,61.6,29.98,NE,46,0.0,0.0,100,0.00,,---,0.30,VWS V14.00,2013-04-27 20:35:00,
2013-04-27 16:41:00,63.0,62.2,30.01,East,88,0.0,0.0,97,0.00,,---,0.30,VWS V14.00,2013-04-27 20:41:00,
2013-04-27 16:46:00,63.2,59.9,30.01,NE,35,0.0,3.6,89,0.00,,---,0.30,VWS V14.00,2013-04-27 20:46:00,
2013-04-27 16:51:00,63.8,59.8,30.01,NNE,33,0.0,0.0,87,0.00,,---,0.30,VWS V14.00,2013-04-27 20:51:00,
2013-04-27 16:56:00,64.3,60.0,29.98,NW,323,0.0,2.7,86,0.00,,---,0.30,VWS V14.00,2013-04-27 20:56:00,
2013-04-27 17:01:00,64.1,58.9,29.98,NE,51,0.0,4.0,83,0.00,,---,0.30,VWS V14.00,2013-04-27 21:01:00,
2013-04-27 17:06:00,64.7,59.4,29.98,NNE,30,3.6,4.0,83,0.00,,---,0.30,VWS V14.00,2013-04-27 21:06:00,
2013-04-27 17:11:00,64.1,59.2,29.98,NE,56,3.1,3.6,84,0.00,,---,0.30,VWS V14.00,2013-04-27 21:11:00,
2013-04-27 17:16:00,65.0,60.7,29.98,NE,56,3.1,3.6,86,0.00,,---,0.30,VWS V14.00,2013-04-27 21:16:00,
2013-04-27 17:21:00,65.4,58.7,29.98,NNE,13,2.7,4.9,79,0.00,,---,0.30,VWS V14.00,2013-04-27 21:21:00,
2013-04-27 17:26:00,65.4,59.1,29.98,NNW,342,5.8,5.8,80,0.00,,---,0.30,VWS V14.00,2013-04-27 21:26:00,
2013-04-27 17:31:00,65.2,59.6,29.98,NE,38,4.0,4.0,82,0.00,,---,0.30,VWS V14.00,2013-04-27 21:31:00,
2013-04-27 17:36:00,65.2,59.9,29.98,NW,323,3.6,4.0,83,0.00,,---,0.30,VWS V14.00,2013-04-27 21:36:00,
2013-04-27 17:41:00,65.0,60.1,29.98,NE,38,3.1,4.0,84,0.00,,---,0.30,VWS V14.00,2013-04-27 21:41:00,
2013-04-27 17:46:00,64.1,60.5,29.98,North,2,4.0,4.0,88,0.00,,---,0.30,VWS V14.00,2013-04-27 21:46:00,
2013-04-27 17:51:00,63.8,60.8,29.98,North,353,0.0,3.1,90,0.00,,---,0.30,VWS V14.00,2013-04-27 21:51:00,
2013-04-27 17:57:00,63.4,60.7,29.98,WNW,302,0.0,3.1,91,0.00,,---,0.30,VWS V14.00,2013-04-27 21:57:00,
2013-04-27 18:02:00,63.2,61.2,29.98,NW,316,0.0,4.0,93,0.00,,---,0.30,VWS V14.00,2013-04-27 22:02:00,
2013-04-27 18:07:00,63.2,61.2,29.98,NNW,333,2.7,4.9,93,0.00,,---,0.30,VWS V14.00,2013-04-27 22:07:00,
2013-04-27 18:12:00,63.2,61.2,29.95,North,0,2.7,6.3,93,0.00,,---,0.30,VWS V14.00,2013-04-27 22:12:00,
2013-04-27 18:17:00,63.2,61.2,29.95,NW,306,3.6,6.3,93,0.00,,---,0.30,VWS V14.00,2013-04-27 22:17:00,
2013-04-27 18:22:00,62.5,61.3,29.95,North,5,5.8,8.1,96,0.00,,---,0.30,VWS V14.00,2013-04-27 22:22:00,
2013-04-27 18:27:00,62.0,61.7,29.98,NW,308,5.4,8.7,99,0.00,,---,0.30,VWS V14.00,2013-04-27 22:27:00,
2013-04-27 18:32:00,61.2,61.2,29.98,NNW,329,0.0,8.7,100,0.00,,---,0.30,VWS V14.00,2013-04-27 22:32:00,
2013-04-27 18:37:00,61.1,61.1,29.98,North,7,8.7,8.7,100,0.00,,---,0.30,VWS V14.00,2013-04-27 22:37:00,
2013-04-27 18:42:00,60.7,60.7,29.98,NNW,348,5.8,7.6,100,0.00,,---,0.30,VWS V14.00,2013-04-27 22:42:00,
2013-04-27 18:48:00,60.5,60.5,29.98,North,353,5.4,8.7,100,0.00,,---,0.30,VWS V14.00,2013-04-27 22:48:00,
2013-04-27 18:53:00,60.3,60.3,29.98,NW,324,4.5,10.1,100,0.00,,---,0.30,VWS V14.00,2013-04-27 22:53:00,
2013-04-27 18:58:00,60.0,60.0,29.98,North,357,6.3,10.1,100,0.00,,---,0.30,VWS V14.00,2013-04-27 22:58:00,
2013-04-27 19:03:00,59.6,59.6,29.98,North,357,0.0,6.7,100,0.00,,---,0.30,VWS V14.00,2013-04-27 23:03:00,
2013-04-27 19:08:00,59.6,59.6,29.98,NNE,15,4.5,8.1,100,0.00,,---,0.30,VWS V14.00,2013-04-27 23:08:00,
2013-04-27 19:13:00,59.6,59.6,29.98,NNW,333,3.6,6.3,100,0.00,,---,0.30,VWS V14.00,2013-04-27 23:13:00,
2013-04-27 19:18:00,59.8,59.8,29.98,NNW,342,0.0,6.7,100,0.00,,---,0.30,VWS V14.00,2013-04-27 23:18:00,
2013-04-27 19:23:00,60.0,60.0,29.98,North,353,2.2,4.0,100,0.00,,---,0.30,VWS V14.00,2013-04-27 23:23:00,
2013-04-27 19:28:00,59.8,59.8,29.98,NW,317,5.4,5.8,100,0.00,,---,0.30,VWS V14.00,2013-04-27 23:28:00,
2013-04-27 19:33:00,59.8,59.8,29.98,WNW,303,0.0,5.4,100,0.00,,---,0.30,VWS V14.00,2013-04-27 23:33:00,
2013-04-27 19:38:00,59.8,59.8,29.98,NNW,342,3.1,6.3,100,0.00,,---,0.30,VWS V14.00,2013-04-27 23:38:00,
2013-04-27 19:43:00,59.8,59.8,29.98,NNW,330,2.2,5.4,100,0.00,,---,0.30,VWS V14.00,2013-04-27 23:43:00,
2013-04-27 19:49:00,59.8,59.8,29.98,NW,311,3.6,5.4,100,0.00,,---,0.30,VWS V14.00,2013-04-27 23:49:00,
2013-04-27 19:54:00,60.0,60.0,29.98,West,262,0.0,5.4,100,0.00,,---,0.30,VWS V14.00,2013-04-27 23:54:00,
2013-04-27 19:59:00,60.0,60.0,29.98,NW,312,0.0,7.2,100,0.00,,---,0.30,VWS V14.00,2013-04-27 23:59:00,
2013-04-27 20:04:00,60.0,60.0,29.98,NNW,329,4.9,6.3,100,0.00,,---,0.30,VWS V14.00,2013-04-28 00:04:00,
2013-04-27 20:09:00,60.0,60.0,29.98,NW,316,4.0,6.3,100,0.00,,---,0.30,VWS V14.00,2013-04-28 00:09:00,
2013-04-27 20:14:00,60.0,60.0,29.98,NNW,328,2.7,5.4,100,0.00,,---,0.30,VWS V14.00,2013-04-28 00:14:00,
2013-04-27 20:19:00,60.0,60.0,29.98,SW,232,0.0,5.4,100,0.00,,---,0.30,VWS V14.00,2013-04-28 00:19:00,
2013-04-27 20:24:00,60.0,60.0,29.98,West,270,0.0,6.3,100,0.00,,---,0.30,VWS V14.00,2013-04-28 00:24:00,
2013-04-27 20:29:00,60.0,60.0,29.98,WNW,285,0.0,6.3,100,0.00,,---,0.30,VWS V14.00,2013-04-28 00:29:00,
2013-04-27 20:34:00,59.8,59.8,29.98,NNW,330,2.7,5.8,100,0.00,,---,0.30,VWS V14.00,2013-04-28 00:34:00,
2013-04-27 20:39:00,59.4,59.4,29.98,NNW,332,4.0,5.8,100,0.00,,---,0.30,VWS V14.00,2013-04-28 00:39:00,
2013-04-27 20:45:00,59.3,59.3,29.98,NNW,342,0.0,6.3,100,0.00,,---,0.30,VWS V14.00,2013-04-28 00:45:00,
2013-04-27 20:50:00,59.1,59.1,29.98,NNW,328,2.7,6.3,100,0.00,,---,0.30,VWS V14.00,2013-04-28 00:50:00,
2013-04-27 20:55:00,58.9,58.9,29.98,NNW,328,0.0,4.0,100,0.00,,---,0.30,VWS V14.00,2013-04-28 00:55:00,
2013-04-27 21:00:00,58.7,58.7,29.98,NW,310,4.0,6.3,100,0.00,,---,0.30,VWS V14.00,2013-04-28 01:00:00,
2013-04-27 21:05:00,58.2,58.2,29.98,WSW,257,0.0,4.0,100,0.00,,---,0.30,VWS V14.00,2013-04-28 01:05:00,
2013-04-27 21:10:00,58.0,58.0,29.98,NW,304,0.0,0.0,100,0.00,,---,0.30,VWS V14.00,2013-04-28 01:10:00,
2013-04-27 21:15:00,57.8,57.8,29.98,West,269,0.0,5.4,100,0.00,,---,0.30,VWS V14.00,2013-04-28 01:15:00,
2013-04-27 21:20:00,57.8,57.8,29.98,West,275,0.0,0.0,100,0.00,,---,0.30,VWS V14.00,2013-04-28 01:20:00,
2013-04-27 21:25:00,57.8,57.8,29.98,NW,313,3.1,5.4,100,0.00,,---,0.30,VWS V14.00,2013-04-28 01:25:00,
2013-04-27 21:30:00,57.8,57.8,29.98,NNW,339,0.0,0.0,100,0.00,,---,0.30,VWS V14.00,2013-04-28 01:30:00,
2013-04-27 21:35:00,57.6,57.6,29.98,NW,321,2.7,3.6,100,0.00,,---,0.30,VWS V14.00,2013-04-28 01:35:00,
2013-04-27 21:40:00,57.5,57.5,29.98,North,0,0.0,0.0,100,0.00,,---,0.30,VWS V14.00,2013-04-28 01:40:00,
2013-04-27 21:45:00,57.5,57.5,29.98,NNW,348,0.0,0.0,100,0.00,,---,0.30,VWS V14.00,2013-04-28 01:45:00,
2013-04-27 21:50:00,57.5,57.5,29.98,NW,324,0.0,0.0,100,0.00,,---,0.30,VWS V14.00,2013-04-28 01:50:00,
2013-04-27 21:56:00,57.5,57.5,29.98,NW,324,0.0,0.0,100,0.00,,---,0.30,VWS V14.00,2013-04-28 01:56:00,
2013-04-27 22:01:00,57.1,57.1,29.98,NW,325,0.0,0.0,100,0.00,,---,0.30,VWS V14.00,2013-04-28 02:01:00,
2013-04-27 22:06:00,56.7,56.7,29.98,NW,325,0.0,0.0,100,0.00,,---,0.30,VWS V14.00,2013-04-28 02:06:00,
2013-04-27 22:11:00,56.6,56.6,29.98,NNW,334,0.0,0.0,100,0.00,,---,0.30,VWS V14.00,2013-04-28 02:11:00,
2013-04-27 22:16:00,56.2,56.2,29.98,NNW,334,0.0,0.0,100,0.00,,---,0.30,VWS V14.00,2013-04-28 02:16:00,
2013-04-27 22:21:00,56.2,56.2,29.98,NNW,334,0.0,0.0,100,0.00,,---,0.30,VWS V14.00,2013-04-28 02:21:00,
2013-04-27 22:26:00,56.0,56.0,29.98,NNW,334,0.0,0.0,100,0.00,,---,0.30,VWS V14.00,2013-04-28 02:26:00,
2013-04-27 22:31:00,55.8,55.8,29.98,NNW,334,0.0,0.0,100,0.00,,---,0.30,VWS V14.00,2013-04-28 02:31:00,
2013-04-27 22:36:00,55.5,55.5,29.98,NNW,334,0.0,0.0,100,0.00,,---,0.30,VWS V14.00,2013-04-28 02:36:00,
2013-04-27 22:41:00,55.3,55.3,30.01,NNW,334,0.0,0.0,100,0.00,,---,0.30,VWS V14.00,2013-04-28 02:41:00,
2013-04-27 22:47:00,55.1,55.1,30.01,NNW,334,0.0,0.0,100,0.00,,---,0.30,VWS V14.00,2013-04-28 02:47:00,
2013-04-27 22:52:00,55.5,55.5,30.01,NNW,334,0.0,0.0,100,0.00,,---,0.30,VWS V14.00,2013-04-28 02:52:00,
2013-04-27 22:57:00,55.7,55.7,30.01,NNW,334,0.0,0.0,100,0.00,,---,0.30,VWS V14.00,2013-04-28 02:57:00,
2013-04-27 23:02:00,55.8,55.8,30.01,NNW,334,0.0,0.0,100,0.00,,---,0.30,VWS V14.00,2013-04-28 03:02:00,
2013-04-27 23:07:00,56.2,56.2,30.01,NNW,334,0.0,0.0,100,0.00,,---,0.30,VWS V14.00,2013-04-28 03:07:00,
2013-04-27 23:12:00,56.4,56.4,30.01,NNW,334,0.0,0.0,100,0.00,,---,0.30,VWS V14.00,2013-04-28 03:12:00,
2013-04-27 23:17:00,56.6,56.6,30.01,NNW,334,0.0,0.0,100,0.00,,---,0.30,VWS V14.00,2013-04-28 03:17:00,
2013-04-27 23:22:00,56.9,56.9,30.01,NNW,334,0.0,0.0,100,0.00,,---,0.30,VWS V14.00,2013-04-28 03:22:00,
2013-04-27 23:27:00,56.9,56.9,30.04,NNW,334,0.0,0.0,100,0.00,,---,0.30,VWS V14.00,2013-04-28 03:27:00,
2013-04-27 23:32:00,57.1,57.1,30.04,NNW,334,0.0,0.0,100,0.00,,---,0.30,VWS V14.00,2013-04-28 03:32:00,
2013-04-27 23:37:00,57.1,57.1,30.04,NNW,334,0.0,0.0,100,0.00,,---,0.30,VWS V14.00,2013-04-28 03:37:00,
2013-04-27 23:42:00,56.9,56.9,30.04,NNW,334,0.0,0.0,100,0.00,,---,0.30,VWS V14.00,2013-04-28 03:42:00,
2013-04-27 23:47:00,56.7,56.7,30.04,NNW,334,0.0,0.0,100,0.00,,---,0.30,VWS V14.00,2013-04-28 03:47:00,
2013-04-27 23:52:00,56.7,56.7,30.04,NNW,334,0.0,0.0,100,0.00,,---,0.30,VWS V14.00,2013-04-28 03:52:00,
2013-04-27 23:57:00,56.6,56.6,30.04,NNW,334,0.0,0.0,100,0.00,,---,0.30,VWS V14.00,2013-04-28 03:57:00,